Commodore Goodwill — C6NU8 — position and weather

sailwx.info

Track history (hours):
 
Tides and Currents Weather Stations Pressure Air Temp Water Temp Dewpoint Dewpoint Depression Visibility Wind Speed Wind Dir Waves Ship Positions

Commodore Goodwill

Operator: Condor Marine Services

Last reported at 2017-Sep-19 23:45 UTC. Time now 2017-Sep-20 00:34 UTC.
Position N 49°48' W 002°01'.

Length 126 m; draft 5.2 m.

Type: Ship (hazmat cat C). MMSI: 309536000.

Date/timePositionNaut miles runAvg speedWind from/ knotsBaromVisibWave heightAir tempDewpointWater temp
2017-Sep-19 23:45N 49°48' W 002°01'416.3
2017-Sep-19 23:30N 49°51' W 001°57'715.4
2017-Sep-19 23:00N 49°57' W 001°49'815.2
2017-Sep-19 22:31N 50°03' W 001°42'714.5
2017-Sep-19 22:00N 50°09' W 001°34'3214.4
2017-Sep-19 19:48N 50°36' W 001°08'414.2
2017-Sep-19 19:30N 50°39' W 001°05'713.7
2017-Sep-19 19:01N 50°46' W 001°05'3 5.4
2017-Sep-19 18:30N 50°49' W 001°06'0 0.0
2017-Sep-19 18:00N 50°49' W 001°06'0 0.0
2017-Sep-19 17:30N 50°49' W 001°06'0 0.0
2017-Sep-19 17:00N 50°49' W 001°06'0 0.0
2017-Sep-19 16:30N 50°49' W 001°06'0 0.0
2017-Sep-19 16:00N 50°49' W 001°06'0 0.3
2017-Sep-19 15:30N 50°49' W 001°06'2 4.4
2017-Sep-19 15:00N 50°47' W 001°06'714.3
2017-Sep-19 14:30N 50°40' W 001°00'4314.1
2017-Sep-19 11:26N 50°05' W 001°41'614.2
2017-Sep-19 11:00N 50°01' W 001°48'814.8
2017-Sep-19 10:30N 49°54' W 001°54'8 0.7
2017-Sep-18 23:32N 49°48' W 002°00'013.4
2017-Sep-18 23:30N 49°48' W 002°00'714.1
2017-Sep-18 23:00N 49°54' W 001°54'714.4
2017-Sep-18 22:30N 50°00' W 001°49'612.5
2017-Sep-18 22:00N 50°05' W 001°43'3814.8
2017-Sep-18 19:26N 50°36' W 001°08'715.4
2017-Sep-18 19:00N 50°42' W 001°03'713.1
2017-Sep-18 18:30N 50°48' W 001°07'1 2.5
2017-Sep-18 18:00N 50°49' W 001°06'0 0.0
2017-Sep-18 17:30N 50°49' W 001°06'0 0.0
2017-Sep-18 17:01N 50°49' W 001°06'0 0.0
2017-Sep-18 16:30N 50°49' W 001°06'0 0.0
2017-Sep-18 16:00N 50°49' W 001°06'0 0.0
2017-Sep-18 15:30N 50°49' W 001°06'2 4.0
2017-Sep-18 15:00N 50°47' W 001°06'713.4
2017-Sep-18 14:31N 50°40' W 001°04'4415.2
2017-Sep-18 11:35N 50°04' W 001°43'214.6
2017-Sep-18 11:29N 50°02' W 001°44'714.6
2017-Sep-18 11:00N 49°57' W 001°51'715.0
2017-Sep-18 10:30N 49°51' W 001°57'3 0.3
2017-Sep-17 23:11N 49°48' W 001°60'212.0
2017-Sep-17 23:00N 49°50' W 001°58'713.7
2017-Sep-17 22:30N 49°56' W 001°52'815.5
2017-Sep-17 22:01N 50°02' W 001°45'815.2
2017-Sep-17 21:30N 50°08' W 001°37'3215.6
2017-Sep-17 19:26N 50°35' W 001°10'715.1
2017-Sep-17 19:00N 50°40' W 001°04'713.6
2017-Sep-17 18:30N 50°47' W 001°06'2 4.0
2017-Sep-17 18:01N 50°49' W 001°06'0 0.4
2017-Sep-17 17:30N 50°49' W 001°06'0 0.0
2017-Sep-17 17:00N 50°49' W 001°06'0 0.0
2017-Sep-17 16:30N 50°49' W 001°06'0 0.0
2017-Sep-17 16:00N 50°49' W 001°06'0 0.0
2017-Sep-17 15:30N 50°49' W 001°06'0 0.0
2017-Sep-17 15:00N 50°49' W 001°06'0 0.0
2017-Sep-17 14:30N 50°49' W 001°06'0 0.0
2017-Sep-17 14:00N 50°49' W 001°06'0 0.0
2017-Sep-17 13:30N 50°49' W 001°06'0 0.0
2017-Sep-17 13:00N 50°49' W 001°06'0 0.0
2017-Sep-17 12:30N 50°49' W 001°06'0 0.0
2017-Sep-17 12:00N 50°49' W 001°06'0 0.0
2017-Sep-17 11:30N 50°49' W 001°06'0 0.0
2017-Sep-17 11:00N 50°49' W 001°06'0 0.0
2017-Sep-17 10:30N 50°49' W 001°06'0 0.0
2017-Sep-17 10:00N 50°49' W 001°06'0 0.0
2017-Sep-17 09:30N 50°49' W 001°06'0 0.0
2017-Sep-17 09:00N 50°49' W 001°06'0 0.0
2017-Sep-17 08:30N 50°49' W 001°06'0 0.0
2017-Sep-17 08:00N 50°49' W 001°06'1 1.5
2017-Sep-17 07:30N 50°48' W 001°07'611.4
2017-Sep-17 07:00N 50°43' W 001°03'816.7
2017-Sep-17 06:30N 50°35' W 001°09'1019.0
2017-Sep-17 06:00N 50°27' W 001°17'2419.0
2017-Sep-17 04:44N 50°07' W 001°38'419.4
2017-Sep-17 04:30N 50°04' W 001°42'1019.4
2017-Sep-17 04:00N 49°56' W 001°50'1019.9
2017-Sep-17 03:30N 49°47' W 001°59'1 0.0
2017-Sep-15 23:05N 49°48' W 001°60'111.4
2017-Sep-15 23:01N 49°48' W 001°59'713.4
2017-Sep-15 22:30N 49°54' W 001°52'918.0
2017-Sep-15 22:00N 50°00' W 001°43'917.8
2017-Sep-15 21:30N 50°08' W 001°37'3217.9
2017-Sep-15 19:43N 50°35' W 001°09'618.3
2017-Sep-15 19:22N 50°40' W 001°04'514.8
2017-Sep-15 19:00N 50°45' W 001°05'3 6.6
2017-Sep-15 18:30N 50°49' W 001°06'0 0.0
2017-Sep-15 18:00N 50°49' W 001°06'0 0.0
2017-Sep-15 17:30N 50°49' W 001°06'0 0.0
2017-Sep-15 17:00N 50°49' W 001°06'0 0.0
2017-Sep-15 16:30N 50°49' W 001°06'0 0.0
2017-Sep-15 16:00N 50°49' W 001°06'0 0.0
2017-Sep-15 15:30N 50°49' W 001°06'2 3.3
2017-Sep-15 15:00N 50°47' W 001°06'714.0
2017-Sep-15 14:30N 50°40' W 001°03'3618.4
2017-Sep-15 12:33N 50°11' W 001°36'217.7
2017-Sep-15 12:27N 50°09' W 001°36'917.9
2017-Sep-15 11:55N 50°01' W 001°44'717.7
2017-Sep-15 11:31N 49°55' W 001°51'917.5
2017-Sep-15 11:00N 49°48' W 001°58'1 0.1
2017-Sep-14 23:22N 49°47' W 001°59'512.6
2017-Sep-14 23:00N 49°51' W 001°55'714.9
2017-Sep-14 22:30N 49°56' W 001°47'917.8
2017-Sep-14 22:00N 50°04' W 001°40'3117.7
2017-Sep-14 20:15N 50°31' W 001°14'518.1
2017-Sep-14 19:59N 50°34' W 001°10'917.8
2017-Sep-14 19:30N 50°42' W 001°03'713.4
2017-Sep-14 19:00N 50°48' W 001°07'1 2.4
2017-Sep-14 18:30N 50°49' W 001°06'0 0.0
2017-Sep-14 18:00N 50°49' W 001°06'0 0.0
2017-Sep-14 17:30N 50°49' W 001°06'0 0.0
2017-Sep-14 17:00N 50°49' W 001°06'0 0.0
2017-Sep-14 16:30N 50°49' W 001°06'0 0.0
2017-Sep-14 16:00N 50°49' W 001°06'0 0.6
2017-Sep-14 15:30N 50°49' W 001°06'5 9.1
2017-Sep-14 15:00N 50°44' W 001°04'816.7
2017-Sep-14 14:30N 50°36' W 001°08'3619.3
2017-Sep-14 12:38N 50°07' W 001°41'319.3
2017-Sep-14 12:30N 50°05' W 001°43'1118.8
2017-Sep-14 11:55N 49°56' W 001°53'818.8
2017-Sep-14 11:31N 49°49' W 001°59'3 0.3
2017-Sep-14 01:02N 49°46' W 001°59'113.3
2017-Sep-14 00:58N 49°47' W 001°59'613.5
2017-Sep-14 00:31N 49°51' W 001°53'714.0
2017-Sep-14 00:01N 49°57' W 001°46'714.7
2017-Sep-13 23:30N 50°03' W 001°40'815.1
2017-Sep-13 23:01N 50°10' W 001°34'2315.8
2017-Sep-13 21:32N 50°30' W 001°15'116.6
2017-Sep-13 21:29N 50°30' W 001°14'817.0
2017-Sep-13 21:00N 50°37' W 001°07'815.4
2017-Sep-13 20:30N 50°45' W 001°05'4 8.3
2017-Sep-13 20:01N 50°49' W 001°06'0 0.5
2017-Sep-13 19:31N 50°49' W 001°06'0 0.0
2017-Sep-13 19:00N 50°49' W 001°06'0 0.0
2017-Sep-13 18:30N 50°49' W 001°06'0 0.0
2017-Sep-13 18:01N 50°49' W 001°06'0 0.0
2017-Sep-13 17:31N 50°49' W 001°06'0 0.0
2017-Sep-13 17:01N 50°49' W 001°06'0 0.4
2017-Sep-13 16:31N 50°49' W 001°06'4 8.9
2017-Sep-13 16:01N 50°44' W 001°04'816.0
2017-Sep-13 15:31N 50°37' W 001°07'2518.2
2017-Sep-13 14:08N 50°15' W 001°26'319.0
2017-Sep-13 13:57N 50°12' W 001°29'919.4
2017-Sep-13 13:30N 50°05' W 001°37'1019.6
2017-Sep-13 13:01N 49°57' W 001°46'1020.2
2017-Sep-13 12:30N 49°49' W 001°56'4 0.3
2017-Sep-13 01:01N 49°46' W 001°59'111.6
2017-Sep-13 00:58N 49°46' W 001°58'511.6
2017-Sep-13 00:31N 49°50' W 001°52'612.0
2017-Sep-13 00:01N 49°54' W 001°45'611.8
2017-Sep-12 23:31N 49°59' W 001°41'612.4
2017-Sep-12 23:00N 50°05' W 001°37'612.6
2017-Sep-12 22:31N 50°10' W 001°32'2013.9
2017-Sep-12 21:04N 50°27' W 001°16'815.0
2017-Sep-12 20:32N 50°35' W 001°10'116.2
2017-Sep-12 20:29N 50°35' W 001°10'815.8
2017-Sep-12 20:01N 50°41' W 001°03'612.2
2017-Sep-12 19:30N 50°47' W 001°06'2 3.8
2017-Sep-12 19:00N 50°49' W 001°06'0 0.0
2017-Sep-12 18:30N 50°49' W 001°06'0 0.0
2017-Sep-12 18:00N 50°49' W 001°06'0 0.0
2017-Sep-12 17:30N 50°49' W 001°06'0 0.0
2017-Sep-12 17:00N 50°49' W 001°06'0 0.0
2017-Sep-12 16:30N 50°49' W 001°06'1 1.2
2017-Sep-12 16:00N 50°49' W 001°07'3 6.8
2017-Sep-12 15:31N 50°45' W 001°06'2 3.2
2017-Sep-12 15:00N 50°44' W 001°04'4 7.5
2017-Sep-12 14:31N 50°40' W 001°04'815.3
2017-Sep-12 14:00N 50°34' W 001°10'3418.5
2017-Sep-12 12:11N 50°06' W 001°40'319.9
2017-Sep-12 12:00N 50°03' W 001°43'1020.4
2017-Sep-12 11:30N 49°55' W 001°52'9 0.8
2017-Sep-11 23:43N 49°47' W 001°59'312.5
2017-Sep-11 23:30N 49°49' W 001°57'612.3
2017-Sep-11 23:00N 49°53' W 001°50'612.4
2017-Sep-11 22:30N 49°57' W 001°43'713.5
2017-Sep-11 22:00N 50°03' W 001°38'714.7
2017-Sep-11 21:30N 50°10' W 001°33'3316.1
2017-Sep-11 19:25N 50°38' W 001°03'614.5
2017-Sep-11 19:00N 50°44' W 001°03'510.8
2017-Sep-11 18:31N 50°49' W 001°06'0 0.7
2017-Sep-11 18:01N 50°49' W 001°06'0 0.0
2017-Sep-11 17:31N 50°49' W 001°06'0 0.0
2017-Sep-11 17:01N 50°49' W 001°06'0 0.0
2017-Sep-11 16:31N 50°49' W 001°06'0 0.0
2017-Sep-11 16:01N 50°49' W 001°06'0 0.0
2017-Sep-11 15:30N 50°49' W 001°06'2 3.3
2017-Sep-11 15:01N 50°47' W 001°06'714.2
2017-Sep-11 14:30N 50°40' W 001°04'3116.9
2017-Sep-11 12:40N 50°14' W 001°31'317.5
2017-Sep-11 12:30N 50°12' W 001°33'917.7
2017-Sep-11 12:00N 50°04' W 001°39'917.7
2017-Sep-11 11:30N 49°57' W 001°48'918.6
2017-Sep-11 11:00N 49°50' W 001°57'4 0.4
2017-Sep-10 23:58N 49°46' W 001°59'612.0
2017-Sep-10 23:30N 49°48' W 001°51'612.4
2017-Sep-10 23:01N 49°50' W 001°42'612.1
2017-Sep-10 22:30N 49°52' W 001°33'611.9
2017-Sep-10 22:00N 49°54' W 001°25'612.8
2017-Sep-10 21:30N 50°00' W 001°21'815.4
2017-Sep-10 21:00N 50°08' W 001°20'815.1
2017-Sep-10 20:30N 50°15' W 001°19'2614.9
2017-Sep-10 18:44N 50°39' W 001°02'415.4
2017-Sep-10 18:31N 50°43' W 001°01'611.1
2017-Sep-10 18:00N 50°47' W 001°06'2 3.1
2017-Sep-10 17:30N 50°49' W 001°06'0 0.0
2017-Sep-10 17:00N 50°49' W 001°06'0 0.0
2017-Sep-10 16:30N 50°49' W 001°06'0 0.0
2017-Sep-10 16:00N 50°49' W 001°06'0 0.0
2017-Sep-10 15:31N 50°49' W 001°06'0 0.0
2017-Sep-10 15:00N 50°49' W 001°06'0 0.0
2017-Sep-10 14:00N 50°49' W 001°06'0 0.0
2017-Sep-10 13:30N 50°49' W 001°06'0 0.0
2017-Sep-10 13:00N 50°49' W 001°06'0 0.0
2017-Sep-10 12:31N 50°49' W 001°06'0 0.0
2017-Sep-10 12:00N 50°49' W 001°06'0 0.0
2017-Sep-10 11:30N 50°49' W 001°06'0 0.0
2017-Sep-10 11:01N 50°49' W 001°06'0 0.0
2017-Sep-10 10:30N 50°49' W 001°06'0 0.0
2017-Sep-10 10:00N 50°49' W 001°06'0 0.0
2017-Sep-10 09:30N 50°49' W 001°06'0 0.0
2017-Sep-10 09:00N 50°49' W 001°06'0 0.0
2017-Sep-10 08:31N 50°49' W 001°06'0 0.0
2017-Sep-10 08:00N 50°49' W 001°06'0 0.0
2017-Sep-10 07:30N 50°49' W 001°06'0 0.0
2017-Sep-10 07:00N 50°49' W 001°06'0 0.0
2017-Sep-10 06:30N 50°49' W 001°06'0 0.0
2017-Sep-10 06:01N 50°49' W 001°06'2 4.1
2017-Sep-10 05:31N 50°47' W 001°06'714.1
2017-Sep-10 05:01N 50°40' W 001°00'914.9
2017-Sep-10 04:24N 50°33' W 001°09'3110.3
2017-Sep-10 01:25N 50°08' W 001°36'410.9
2017-Sep-10 01:00N 50°04' W 001°39'611.4
2017-Sep-10 00:30N 49°59' W 001°44'612.1
2017-Sep-10 00:00N 49°54' W 001°50'  
Track history (hours):
 
Tides and Currents Weather Stations Pressure Air Temp Water Temp Dewpoint Dewpoint Depression Visibility Wind Speed Wind Dir Waves Ship Positions

Commodore Goodwill

Operator: Condor Marine Services

Last reported at 2017-Sep-19 23:45 UTC. Time now 2017-Sep-20 00:34 UTC.
Position N 49°48' W 002°01'.

Length 126 m; draft 5.2 m.

Type: Ship (hazmat cat C). MMSI: 309536000.

Date/timePositionNaut miles runAvg speedWind from/ knotsBaromVisibWave heightAir tempDewpointWater temp
2017-Sep-19 23:45N 49°48' W 002°01'416.3
2017-Sep-19 23:30N 49°51' W 001°57'715.4
2017-Sep-19 23:00N 49°57' W 001°49'815.2
2017-Sep-19 22:31N 50°03' W 001°42'714.5
2017-Sep-19 22:00N 50°09' W 001°34'3214.4
2017-Sep-19 19:48N 50°36' W 001°08'414.2
2017-Sep-19 19:30N 50°39' W 001°05'713.7
2017-Sep-19 19:01N 50°46' W 001°05'3 5.4
2017-Sep-19 18:30N 50°49' W 001°06'0 0.0
2017-Sep-19 18:00N 50°49' W 001°06'0 0.0
2017-Sep-19 17:30N 50°49' W 001°06'0 0.0
2017-Sep-19 17:00N 50°49' W 001°06'0 0.0
2017-Sep-19 16:30N 50°49' W 001°06'0 0.0
2017-Sep-19 16:00N 50°49' W 001°06'0 0.3
2017-Sep-19 15:30N 50°49' W 001°06'2 4.4
2017-Sep-19 15:00N 50°47' W 001°06'714.3
2017-Sep-19 14:30N 50°40' W 001°00'4314.1
2017-Sep-19 11:26N 50°05' W 001°41'614.2
2017-Sep-19 11:00N 50°01' W 001°48'814.8
2017-Sep-19 10:30N 49°54' W 001°54'8 0.7
2017-Sep-18 23:32N 49°48' W 002°00'013.4
2017-Sep-18 23:30N 49°48' W 002°00'714.1
2017-Sep-18 23:00N 49°54' W 001°54'714.4
2017-Sep-18 22:30N 50°00' W 001°49'612.5
2017-Sep-18 22:00N 50°05' W 001°43'3814.8
2017-Sep-18 19:26N 50°36' W 001°08'715.4
2017-Sep-18 19:00N 50°42' W 001°03'713.1
2017-Sep-18 18:30N 50°48' W 001°07'1 2.5
2017-Sep-18 18:00N 50°49' W 001°06'0 0.0
2017-Sep-18 17:30N 50°49' W 001°06'0 0.0
2017-Sep-18 17:01N 50°49' W 001°06'0 0.0
2017-Sep-18 16:30N 50°49' W 001°06'0 0.0
2017-Sep-18 16:00N 50°49' W 001°06'0 0.0
2017-Sep-18 15:30N 50°49' W 001°06'2 4.0
2017-Sep-18 15:00N 50°47' W 001°06'713.4
2017-Sep-18 14:31N 50°40' W 001°04'4415.2
2017-Sep-18 11:35N 50°04' W 001°43'214.6
2017-Sep-18 11:29N 50°02' W 001°44'714.6
2017-Sep-18 11:00N 49°57' W 001°51'715.0
2017-Sep-18 10:30N 49°51' W 001°57'3 0.3
2017-Sep-17 23:11N 49°48' W 001°60'212.0
2017-Sep-17 23:00N 49°50' W 001°58'713.7
2017-Sep-17 22:30N 49°56' W 001°52'815.5
2017-Sep-17 22:01N 50°02' W 001°45'815.2
2017-Sep-17 21:30N 50°08' W 001°37'3215.6
2017-Sep-17 19:26N 50°35' W 001°10'715.1
2017-Sep-17 19:00N 50°40' W 001°04'713.6
2017-Sep-17 18:30N 50°47' W 001°06'2 4.0
2017-Sep-17 18:01N 50°49' W 001°06'0 0.4
2017-Sep-17 17:30N 50°49' W 001°06'0 0.0
2017-Sep-17 17:00N 50°49' W 001°06'0 0.0
2017-Sep-17 16:30N 50°49' W 001°06'0 0.0
2017-Sep-17 16:00N 50°49' W 001°06'0 0.0
2017-Sep-17 15:30N 50°49' W 001°06'0 0.0
2017-Sep-17 15:00N 50°49' W 001°06'0 0.0
2017-Sep-17 14:30N 50°49' W 001°06'0 0.0
2017-Sep-17 14:00N 50°49' W 001°06'0 0.0
2017-Sep-17 13:30N 50°49' W 001°06'0 0.0
2017-Sep-17 13:00N 50°49' W 001°06'0 0.0
2017-Sep-17 12:30N 50°49' W 001°06'0 0.0
2017-Sep-17 12:00N 50°49' W 001°06'0 0.0
2017-Sep-17 11:30N 50°49' W 001°06'0 0.0
2017-Sep-17 11:00N 50°49' W 001°06'0 0.0
2017-Sep-17 10:30N 50°49' W 001°06'0 0.0
2017-Sep-17 10:00N 50°49' W 001°06'0 0.0
2017-Sep-17 09:30N 50°49' W 001°06'0 0.0
2017-Sep-17 09:00N 50°49' W 001°06'0 0.0
2017-Sep-17 08:30N 50°49' W 001°06'0 0.0
2017-Sep-17 08:00N 50°49' W 001°06'1 1.5
2017-Sep-17 07:30N 50°48' W 001°07'611.4
2017-Sep-17 07:00N 50°43' W 001°03'816.7
2017-Sep-17 06:30N 50°35' W 001°09'1019.0
2017-Sep-17 06:00N 50°27' W 001°17'2419.0
2017-Sep-17 04:44N 50°07' W 001°38'419.4
2017-Sep-17 04:30N 50°04' W 001°42'1019.4
2017-Sep-17 04:00N 49°56' W 001°50'1019.9
2017-Sep-17 03:30N 49°47' W 001°59'1 0.0
2017-Sep-15 23:05N 49°48' W 001°60'111.4
2017-Sep-15 23:01N 49°48' W 001°59'713.4
2017-Sep-15 22:30N 49°54' W 001°52'918.0
2017-Sep-15 22:00N 50°00' W 001°43'917.8
2017-Sep-15 21:30N 50°08' W 001°37'3217.9
2017-Sep-15 19:43N 50°35' W 001°09'618.3
2017-Sep-15 19:22N 50°40' W 001°04'514.8
2017-Sep-15 19:00N 50°45' W 001°05'3 6.6
2017-Sep-15 18:30N 50°49' W 001°06'0 0.0
2017-Sep-15 18:00N 50°49' W 001°06'0 0.0
2017-Sep-15 17:30N 50°49' W 001°06'0 0.0
2017-Sep-15 17:00N 50°49' W 001°06'0 0.0
2017-Sep-15 16:30N 50°49' W 001°06'0 0.0
2017-Sep-15 16:00N 50°49' W 001°06'0 0.0
2017-Sep-15 15:30N 50°49' W 001°06'2 3.3
2017-Sep-15 15:00N 50°47' W 001°06'714.0
2017-Sep-15 14:30N 50°40' W 001°03'3618.4
2017-Sep-15 12:33N 50°11' W 001°36'217.7
2017-Sep-15 12:27N 50°09' W 001°36'917.9
2017-Sep-15 11:55N 50°01' W 001°44'717.7
2017-Sep-15 11:31N 49°55' W 001°51'917.5
2017-Sep-15 11:00N 49°48' W 001°58'1 0.1
2017-Sep-14 23:22N 49°47' W 001°59'512.6
2017-Sep-14 23:00N 49°51' W 001°55'714.9
2017-Sep-14 22:30N 49°56' W 001°47'917.8
2017-Sep-14 22:00N 50°04' W 001°40'3117.7
2017-Sep-14 20:15N 50°31' W 001°14'518.1
2017-Sep-14 19:59N 50°34' W 001°10'917.8
2017-Sep-14 19:30N 50°42' W 001°03'713.4
2017-Sep-14 19:00N 50°48' W 001°07'1 2.4
2017-Sep-14 18:30N 50°49' W 001°06'0 0.0
2017-Sep-14 18:00N 50°49' W 001°06'0 0.0
2017-Sep-14 17:30N 50°49' W 001°06'0 0.0
2017-Sep-14 17:00N 50°49' W 001°06'0 0.0
2017-Sep-14 16:30N 50°49' W 001°06'0 0.0
2017-Sep-14 16:00N 50°49' W 001°06'0 0.6
2017-Sep-14 15:30N 50°49' W 001°06'5 9.1
2017-Sep-14 15:00N 50°44' W 001°04'816.7
2017-Sep-14 14:30N 50°36' W 001°08'3619.3
2017-Sep-14 12:38N 50°07' W 001°41'319.3
2017-Sep-14 12:30N 50°05' W 001°43'1118.8
2017-Sep-14 11:55N 49°56' W 001°53'818.8
2017-Sep-14 11:31N 49°49' W 001°59'3 0.3
2017-Sep-14 01:02N 49°46' W 001°59'113.3
2017-Sep-14 00:58N 49°47' W 001°59'613.5
2017-Sep-14 00:31N 49°51' W 001°53'714.0
2017-Sep-14 00:01N 49°57' W 001°46'714.7
2017-Sep-13 23:30N 50°03' W 001°40'815.1
2017-Sep-13 23:01N 50°10' W 001°34'2315.8
2017-Sep-13 21:32N 50°30' W 001°15'116.6
2017-Sep-13 21:29N 50°30' W 001°14'817.0
2017-Sep-13 21:00N 50°37' W 001°07'815.4
2017-Sep-13 20:30N 50°45' W 001°05'4 8.3
2017-Sep-13 20:01N 50°49' W 001°06'0 0.5
2017-Sep-13 19:31N 50°49' W 001°06'0 0.0
2017-Sep-13 19:00N 50°49' W 001°06'0 0.0
2017-Sep-13 18:30N 50°49' W 001°06'0 0.0
2017-Sep-13 18:01N 50°49' W 001°06'0 0.0
2017-Sep-13 17:31N 50°49' W 001°06'0 0.0
2017-Sep-13 17:01N 50°49' W 001°06'0 0.4
2017-Sep-13 16:31N 50°49' W 001°06'4 8.9
2017-Sep-13 16:01N 50°44' W 001°04'816.0
2017-Sep-13 15:31N 50°37' W 001°07'2518.2
2017-Sep-13 14:08N 50°15' W 001°26'319.0
2017-Sep-13 13:57N 50°12' W 001°29'919.4
2017-Sep-13 13:30N 50°05' W 001°37'1019.6
2017-Sep-13 13:01N 49°57' W 001°46'1020.2
2017-Sep-13 12:30N 49°49' W 001°56'4 0.3
2017-Sep-13 01:01N 49°46' W 001°59'111.6
2017-Sep-13 00:58N 49°46' W 001°58'511.6
2017-Sep-13 00:31N 49°50' W 001°52'612.0
2017-Sep-13 00:01N 49°54' W 001°45'611.8
2017-Sep-12 23:31N 49°59' W 001°41'612.4
2017-Sep-12 23:00N 50°05' W 001°37'612.6
2017-Sep-12 22:31N 50°10' W 001°32'2013.9
2017-Sep-12 21:04N 50°27' W 001°16'815.0
2017-Sep-12 20:32N 50°35' W 001°10'116.2
2017-Sep-12 20:29N 50°35' W 001°10'815.8
2017-Sep-12 20:01N 50°41' W 001°03'612.2
2017-Sep-12 19:30N 50°47' W 001°06'2 3.8
2017-Sep-12 19:00N 50°49' W 001°06'0 0.0
2017-Sep-12 18:30N 50°49' W 001°06'0 0.0
2017-Sep-12 18:00N 50°49' W 001°06'0 0.0
2017-Sep-12 17:30N 50°49' W 001°06'0 0.0
2017-Sep-12 17:00N 50°49' W 001°06'0 0.0
2017-Sep-12 16:30N 50°49' W 001°06'1 1.2
2017-Sep-12 16:00N 50°49' W 001°07'3 6.8
2017-Sep-12 15:31N 50°45' W 001°06'2 3.2
2017-Sep-12 15:00N 50°44' W 001°04'4 7.5
2017-Sep-12 14:31N 50°40' W 001°04'815.3
2017-Sep-12 14:00N 50°34' W 001°10'3418.5
2017-Sep-12 12:11N 50°06' W 001°40'319.9
2017-Sep-12 12:00N 50°03' W 001°43'1020.4
2017-Sep-12 11:30N 49°55' W 001°52'9 0.8
2017-Sep-11 23:43N 49°47' W 001°59'312.5
2017-Sep-11 23:30N 49°49' W 001°57'612.3
2017-Sep-11 23:00N 49°53' W 001°50'612.4
2017-Sep-11 22:30N 49°57' W 001°43'713.5
2017-Sep-11 22:00N 50°03' W 001°38'714.7
2017-Sep-11 21:30N 50°10' W 001°33'3316.1
2017-Sep-11 19:25N 50°38' W 001°03'614.5
2017-Sep-11 19:00N 50°44' W 001°03'510.8
2017-Sep-11 18:31N 50°49' W 001°06'0 0.7
2017-Sep-11 18:01N 50°49' W 001°06'0 0.0
2017-Sep-11 17:31N 50°49' W 001°06'0 0.0
2017-Sep-11 17:01N 50°49' W 001°06'0 0.0
2017-Sep-11 16:31N 50°49' W 001°06'0 0.0
2017-Sep-11 16:01N 50°49' W 001°06'0 0.0
2017-Sep-11 15:30N 50°49' W 001°06'2 3.3
2017-Sep-11 15:01N 50°47' W 001°06'714.2
2017-Sep-11 14:30N 50°40' W 001°04'3116.9
2017-Sep-11 12:40N 50°14' W 001°31'317.5
2017-Sep-11 12:30N 50°12' W 001°33'917.7
2017-Sep-11 12:00N 50°04' W 001°39'917.7
2017-Sep-11 11:30N 49°57' W 001°48'918.6
2017-Sep-11 11:00N 49°50' W 001°57'4 0.4
2017-Sep-10 23:58N 49°46' W 001°59'612.0
2017-Sep-10 23:30N 49°48' W 001°51'612.4
2017-Sep-10 23:01N 49°50' W 001°42'612.1
2017-Sep-10 22:30N 49°52' W 001°33'611.9
2017-Sep-10 22:00N 49°54' W 001°25'612.8
2017-Sep-10 21:30N 50°00' W 001°21'815.4
2017-Sep-10 21:00N 50°08' W 001°20'815.1
2017-Sep-10 20:30N 50°15' W 001°19'2614.9
2017-Sep-10 18:44N 50°39' W 001°02'415.4
2017-Sep-10 18:31N 50°43' W 001°01'611.1
2017-Sep-10 18:00N 50°47' W 001°06'2 3.1
2017-Sep-10 17:30N 50°49' W 001°06'0 0.0
2017-Sep-10 17:00N 50°49' W 001°06'0 0.0
2017-Sep-10 16:30N 50°49' W 001°06'0 0.0
2017-Sep-10 16:00N 50°49' W 001°06'0 0.0
2017-Sep-10 15:31N 50°49' W 001°06'0 0.0
2017-Sep-10 15:00N 50°49' W 001°06'0 0.0
2017-Sep-10 14:00N 50°49' W 001°06'0 0.0
2017-Sep-10 13:30N 50°49' W 001°06'0 0.0
2017-Sep-10 13:00N 50°49' W 001°06'0 0.0
2017-Sep-10 12:31N 50°49' W 001°06'0 0.0
2017-Sep-10 12:00N 50°49' W 001°06'0 0.0
2017-Sep-10 11:30N 50°49' W 001°06'0 0.0
2017-Sep-10 11:01N 50°49' W 001°06'0 0.0
2017-Sep-10 10:30N 50°49' W 001°06'0 0.0
2017-Sep-10 10:00N 50°49' W 001°06'0 0.0
2017-Sep-10 09:30N 50°49' W 001°06'0 0.0
2017-Sep-10 09:00N 50°49' W 001°06'0 0.0
2017-Sep-10 08:31N 50°49' W 001°06'0 0.0
2017-Sep-10 08:00N 50°49' W 001°06'0 0.0
2017-Sep-10 07:30N 50°49' W 001°06'0 0.0
2017-Sep-10 07:00N 50°49' W 001°06'0 0.0
2017-Sep-10 06:30N 50°49' W 001°06'0 0.0
2017-Sep-10 06:01N 50°49' W 001°06'2 4.1
2017-Sep-10 05:31N 50°47' W 001°06'714.1
2017-Sep-10 05:01N 50°40' W 001°00'914.9
2017-Sep-10 04:24N 50°33' W 001°09'3110.3
2017-Sep-10 01:25N 50°08' W 001°36'410.9
2017-Sep-10 01:00N 50°04' W 001°39'611.4
2017-Sep-10 00:30N 49°59' W 001°44'612.1
2017-Sep-10 00:00N 49°54' W 001°50'  

Dump ship's entire track history